Reeder, North Dakota
Current Conditions -  °F | °C
As of 8:53 AM on Friday 24 Oct 2014 (Local Time) from KHEI Reporting Station
Clear Clear  
Wind Chill: 51°   Ceiling: Unl
Heat Index: 51°   Visibility: 10mi
Dew Point: 34°   Wind: 9mph
Humidity: 52%   Direction: 290°WNW
Pressure: 29.95"   Gusts: NA
Location:  46.11°N, 102.95°W
Report Text: KHEI 241453Z AUTO 29008KT 10SM CLR 11/01 A2995 RMK AO2 SLP144 T01060011 53017
Loading
Personal Weather Stations






























Interactive Weather Map
Tropical Storm Tracking
New forecast layout! Learn more

10-Day Weather Forecast

Advertisements
Track Severe Weather on mobile